createdAt,value
2023-01-09T00:02:06.090Z,38.63
2023-01-09T00:04:33.092Z,38.77
2023-01-09T00:07:00.127Z,39.10
2023-01-09T00:09:27.038Z,37.73
2023-01-09T00:11:57.199Z,36.43
2023-01-09T00:14:24.275Z,37.07
2023-01-09T00:16:54.536Z,35.67
2023-01-09T00:19:21.419Z,37.37
2023-01-09T00:21:48.527Z,36.93
2023-01-09T00:24:15.294Z,37.20
2023-01-09T00:26:42.911Z,34.77
2023-01-09T00:29:11.245Z,37.23
2023-01-09T00:31:38.282Z,36.20
2023-01-09T00:34:07.413Z,38.23
2023-01-09T00:36:34.465Z,35.90
2023-01-09T00:39:01.309Z,35.33
2023-01-09T00:41:39.528Z,37.67
2023-01-09T00:44:11.354Z,37.30
2023-01-09T00:46:42.439Z,37.33
2023-01-09T00:49:09.935Z,36.33
2023-01-09T00:51:39.061Z,34.77
2023-01-09T00:54:06.166Z,36.20
2023-01-09T00:56:36.087Z,36.93
2023-01-09T00:59:04.315Z,34.47
2023-01-09T01:01:31.650Z,35.30
2023-01-09T01:03:58.635Z,35.13
2023-01-09T01:06:43.970Z,32.67
2023-01-09T01:09:10.772Z,35.17
2023-01-09T01:11:37.837Z,34.63
2023-01-09T01:14:04.669Z,35.93
2023-01-09T01:16:32.508Z,35.30
2023-01-09T01:18:59.303Z,35.27
2023-01-09T01:21:26.273Z,36.27
2023-01-09T01:23:53.015Z,35.20
2023-01-09T01:26:20.019Z,33.87
2023-01-09T01:28:46.779Z,36.40
2023-01-09T01:31:18.798Z,34.80
2023-01-09T01:33:45.651Z,34.93
2023-01-09T01:36:14.848Z,35.60
2023-01-09T01:38:41.608Z,35.83
2023-01-09T01:41:08.885Z,35.37
2023-01-09T01:43:49.836Z,35.23
2023-01-09T01:46:18.346Z,35.50
2023-01-09T01:48:46.979Z,34.13
2023-01-09T01:51:16.910Z,35.43
2023-01-09T01:53:51.041Z,35.23
2023-01-09T01:56:24.464Z,36.23
2023-01-09T01:59:06.091Z,35.83
2023-01-09T02:01:34.428Z,35.80
2023-01-09T02:04:02.187Z,34.53
2023-01-09T02:06:30.372Z,37.17
2023-01-09T02:08:57.683Z,36.97
2023-01-09T02:11:25.088Z,35.20
2023-01-09T02:13:52.565Z,36.30
2023-01-09T02:16:53.414Z,34.17
2023-01-09T02:19:45.741Z,38.70
2023-01-09T02:22:21.561Z,36.20
2023-01-09T02:25:09.689Z,37.57
2023-01-09T02:27:52.921Z,36.27
2023-01-09T02:30:31.674Z,37.37
2023-01-09T02:33:02.084Z,36.17
2023-01-09T02:35:53.478Z,34.73
2023-01-09T02:38:23.407Z,34.70
2023-01-09T02:40:58.401Z,33.67
2023-01-09T02:43:26.335Z,34.27
2023-01-09T02:45:53.137Z,35.83
2023-01-09T02:48:20.224Z,37.63
2023-01-09T02:51:21.890Z,36.63
2023-01-09T02:54:20.366Z,36.17
2023-01-09T02:56:58.377Z,35.20
2023-01-09T02:59:53.181Z,35.47
2023-01-09T03:02:51.907Z,35.63
2023-01-09T03:05:25.693Z,36.10
2023-01-09T03:08:03.396Z,36.73
2023-01-09T03:10:47.213Z,35.63
2023-01-09T03:13:18.354Z,34.37
2023-01-09T03:15:50.689Z,33.97
2023-01-09T03:18:22.500Z,35.53
2023-01-09T03:20:51.498Z,36.03
2023-01-09T03:23:18.458Z,36.33
2023-01-09T03:25:45.457Z,35.97
2023-01-09T03:28:23.016Z,36.43
2023-01-09T03:30:50.060Z,35.03
2023-01-09T03:33:16.812Z,37.50
2023-01-09T03:35:45.006Z,35.97
2023-01-09T03:38:11.713Z,35.13
2023-01-09T03:40:39.035Z,36.33
2023-01-09T03:43:05.819Z,36.50
2023-01-09T03:45:32.856Z,33.90
2023-01-09T03:47:59.697Z,34.77
2023-01-09T03:50:26.772Z,34.93
2023-01-09T03:52:53.476Z,34.83
2023-01-09T03:55:20.534Z,34.87
2023-01-09T03:57:47.259Z,35.13
2023-01-09T04:00:14.631Z,34.80
2023-01-09T04:02:42.470Z,34.67
2023-01-09T04:05:09.776Z,34.97
2023-01-09T04:07:36.590Z,36.33
2023-01-09T04:10:04.116Z,34.43
2023-01-09T04:12:30.910Z,33.93
2023-01-09T04:14:58.032Z,36.60
2023-01-09T04:17:24.906Z,35.23
2023-01-09T04:19:51.961Z,34.87
2023-01-09T04:22:18.754Z,35.37
2023-01-09T04:24:45.715Z,37.23
2023-01-09T04:27:12.961Z,36.40
2023-01-09T04:29:39.999Z,36.43
2023-01-09T04:32:06.795Z,37.60
2023-01-09T04:34:33.778Z,38.13
2023-01-09T04:37:00.544Z,39.40
2023-01-09T04:39:27.541Z,37.23
2023-01-09T04:41:54.320Z,37.53
2023-01-09T04:44:26.369Z,37.13
2023-01-09T04:46:54.676Z,38.63
2023-01-09T04:49:22.770Z,38.00
2023-01-09T04:51:49.459Z,40.70
2023-01-09T04:54:16.569Z,38.80
2023-01-09T04:56:43.366Z,38.50
2023-01-09T04:59:10.446Z,39.80
2023-01-09T05:01:37.523Z,38.87
2023-01-09T05:04:05.492Z,41.40
2023-01-09T05:06:32.402Z,40.20
2023-01-09T05:08:59.499Z,41.30
2023-01-09T05:11:26.929Z,42.17
2023-01-09T05:13:54.353Z,43.30
2023-01-09T05:16:21.576Z,41.37
2023-01-09T05:18:48.794Z,41.13
2023-01-09T05:21:15.565Z,42.73
2023-01-09T05:23:42.614Z,41.97
2023-01-09T05:26:09.358Z,42.57
2023-01-09T05:28:36.443Z,42.60
2023-01-09T05:31:03.281Z,41.93
2023-01-09T05:33:30.300Z,43.53
2023-01-09T05:35:57.041Z,43.87
2023-01-09T05:38:24.013Z,44.40
2023-01-09T05:40:50.798Z,45.17
2023-01-09T05:43:17.884Z,43.67
2023-01-09T05:45:45.072Z,44.50
2023-01-09T05:48:12.069Z,45.77
2023-01-09T05:50:38.763Z,45.90
2023-01-09T05:53:06.674Z,43.00
2023-01-09T05:55:33.956Z,43.37
2023-01-09T05:58:01.341Z,43.53
2023-01-09T06:00:28.260Z,44.57
2023-01-09T06:02:55.387Z,42.17
2023-01-09T06:05:22.407Z,42.13
2023-01-09T06:07:49.396Z,41.97
2023-01-09T06:10:16.611Z,41.73
2023-01-09T06:12:48.269Z,39.37
2023-01-09T06:15:18.010Z,41.20
2023-01-09T06:17:45.057Z,42.73
2023-01-09T06:20:12.002Z,42.23
2023-01-09T06:22:39.157Z,42.90
2023-01-09T06:25:06.340Z,43.73
2023-01-09T06:27:33.471Z,45.17
2023-01-09T06:30:00.221Z,43.67
2023-01-09T06:32:27.402Z,45.87
2023-01-09T06:34:54.144Z,45.27
2023-01-09T06:37:21.154Z,43.80
2023-01-09T06:39:47.961Z,43.40
2023-01-09T06:42:14.937Z,43.20
2023-01-09T06:44:41.986Z,44.90
2023-01-09T06:47:09.011Z,43.97
2023-01-09T06:49:35.925Z,44.97
2023-01-09T06:52:07.718Z,42.43
2023-01-09T06:54:34.939Z,43.83
2023-01-09T06:57:02.011Z,43.00
2023-01-09T06:59:28.980Z,42.23
2023-01-09T07:01:56.026Z,41.77
2023-01-09T07:04:23.238Z,43.47
2023-01-09T07:06:50.326Z,45.53
2023-01-09T07:09:17.284Z,47.60
2023-01-09T07:11:44.311Z,46.97
2023-01-09T07:14:11.080Z,45.27
2023-01-09T07:16:38.193Z,43.23
2023-01-09T07:19:05.109Z,42.97
2023-01-09T07:21:32.950Z,42.17
2023-01-09T07:23:59.837Z,44.27
2023-01-09T07:26:26.988Z,42.90
2023-01-09T07:28:54.582Z,44.17
2023-01-09T07:31:21.800Z,46.13
2023-01-09T07:33:48.550Z,46.10
2023-01-09T07:36:15.628Z,54.17
2023-01-09T07:38:42.397Z,51.83
2023-01-09T07:41:09.487Z,52.93
2023-01-09T07:43:37.661Z,51.90
2023-01-09T07:46:06.492Z,54.83
2023-01-09T07:48:33.647Z,52.37
2023-01-09T07:51:00.681Z,56.67
2023-01-09T07:53:28.200Z,54.50
2023-01-09T07:55:55.207Z,55.10
2023-01-09T07:58:21.993Z,55.40
2023-01-09T08:00:51.005Z,55.43
2023-01-09T08:03:18.066Z,52.57
2023-01-09T08:05:46.215Z,52.87
2023-01-09T08:08:14.970Z,56.27
2023-01-09T08:10:41.843Z,52.27
2023-01-09T08:13:08.816Z,52.80
2023-01-09T08:15:35.623Z,56.97
2023-01-09T08:18:02.749Z,55.30
2023-01-09T08:20:29.629Z,54.40
2023-01-09T08:22:56.878Z,51.50
2023-01-09T08:25:23.816Z,51.53
2023-01-09T08:27:51.033Z,52.53
2023-01-09T08:30:18.517Z,54.73
2023-01-09T08:32:52.878Z,53.60
2023-01-09T08:35:20.553Z,53.50
2023-01-09T08:37:48.560Z,51.97
2023-01-09T08:40:16.502Z,50.93
2023-01-09T08:43:02.908Z,63.97
2023-01-09T08:45:49.060Z,59.87
2023-01-09T08:48:16.875Z,57.70
2023-01-09T08:50:44.166Z,49.77
2023-01-09T08:53:11.757Z,56.67
2023-01-09T08:55:38.820Z,54.93
2023-01-09T08:58:05.893Z,52.40
2023-01-09T09:00:32.757Z,50.10
2023-01-09T09:03:01.575Z,52.53
2023-01-09T09:05:31.316Z,50.50
2023-01-09T09:07:59.125Z,55.70
2023-01-09T09:10:28.109Z,52.60
2023-01-09T09:12:57.771Z,50.97
2023-01-09T09:15:26.736Z,51.00
2023-01-09T09:17:55.258Z,78.43
2023-01-09T09:20:23.479Z,69.47
2023-01-09T09:22:51.044Z,60.27
2023-01-09T09:25:18.088Z,50.00
2023-01-09T09:27:45.518Z,47.83
2023-01-09T09:30:14.287Z,48.10
2023-01-09T09:32:41.963Z,47.83
2023-01-09T09:35:11.779Z,47.37
2023-01-09T09:37:39.456Z,50.33
2023-01-09T09:40:17.794Z,46.53
2023-01-09T09:43:31.214Z,47.37
2023-01-09T09:46:18.223Z,44.50
2023-01-09T09:48:58.086Z,46.13
2023-01-09T09:51:51.489Z,47.47
2023-01-09T09:54:25.147Z,47.23
2023-01-09T09:56:57.427Z,48.27
2023-01-09T09:59:33.319Z,48.20
2023-01-09T10:02:22.030Z,44.73
2023-01-09T10:04:55.092Z,51.33
2023-01-09T10:07:31.642Z,55.23
2023-01-09T10:10:05.818Z,54.47
2023-01-09T10:12:39.202Z,45.90
2023-01-09T10:15:18.255Z,42.87
2023-01-09T10:17:51.718Z,44.87
2023-01-09T10:20:37.145Z,45.57
2023-01-09T10:23:14.363Z,45.23
2023-01-09T10:26:12.411Z,45.80
2023-01-09T10:28:57.789Z,43.87
2023-01-09T10:31:49.200Z,44.50
2023-01-09T10:34:18.947Z,43.67
2023-01-09T10:37:13.857Z,47.73
2023-01-09T10:39:52.717Z,50.03
2023-01-09T10:42:42.509Z,50.20
2023-01-09T10:45:15.062Z,44.97
2023-01-09T10:47:43.774Z,49.87
2023-01-09T10:50:29.934Z,65.90
2023-01-09T10:52:57.013Z,48.23
2023-01-09T10:55:40.093Z,46.13
2023-01-09T10:58:18.282Z,50.43
2023-01-09T11:00:46.578Z,48.67
2023-01-09T11:03:18.988Z,47.00
2023-01-09T11:05:54.923Z,50.47
2023-01-09T11:08:28.009Z,50.70
2023-01-09T11:11:00.351Z,53.03
2023-01-09T11:13:36.479Z,46.43
2023-01-09T11:16:16.655Z,49.33
2023-01-09T11:18:55.627Z,49.00
2023-01-09T11:21:28.630Z,53.10
2023-01-09T11:23:56.436Z,53.53
2023-01-09T11:26:28.252Z,57.90
2023-01-09T11:29:12.507Z,56.77
2023-01-09T11:31:50.339Z,64.43
2023-01-09T11:34:19.837Z,60.93
2023-01-09T11:36:47.853Z,61.83
2023-01-09T11:39:38.069Z,66.63
2023-01-09T11:42:07.575Z,58.67
2023-01-09T11:44:34.659Z,63.90
2023-01-09T11:47:01.529Z,58.73
2023-01-09T11:49:31.140Z,63.73
2023-01-09T11:52:20.398Z,60.07
2023-01-09T11:55:00.852Z,63.67
2023-01-09T11:57:27.812Z,59.03
2023-01-09T11:59:59.619Z,58.23
2023-01-09T12:03:15.914Z,59.13
2023-01-09T12:05:46.985Z,57.53
2023-01-09T12:08:27.280Z,59.87
2023-01-09T12:11:11.891Z,60.03
2023-01-09T12:14:16.696Z,61.23
2023-01-09T12:17:25.484Z,63.53
2023-01-09T12:20:17.735Z,62.43
2023-01-09T12:23:03.863Z,57.17
2023-01-09T12:25:37.029Z,59.10
2023-01-09T12:28:22.197Z,58.97
2023-01-09T12:31:03.154Z,58.23
2023-01-09T12:33:54.768Z,61.50
2023-01-09T12:36:52.343Z,64.80
2023-01-09T12:39:53.416Z,68.13
2023-01-09T12:42:34.494Z,61.97
2023-01-09T12:45:28.913Z,60.77
2023-01-09T12:48:07.467Z,59.00
2023-01-09T12:51:02.826Z,61.57
2023-01-09T12:53:59.227Z,60.37
2023-01-09T12:56:38.502Z,57.90
2023-01-09T12:59:36.737Z,58.77
2023-01-09T13:02:19.810Z,59.73
2023-01-09T13:05:00.180Z,61.80
2023-01-09T13:07:33.542Z,58.97
2023-01-09T13:10:09.039Z,59.83
2023-01-09T13:12:39.552Z,55.83
2023-01-09T13:15:21.849Z,56.47
2023-01-09T13:18:01.723Z,59.67
2023-01-09T13:20:39.409Z,62.10
2023-01-09T13:23:07.183Z,62.93
2023-01-09T13:25:41.971Z,62.10
2023-01-09T13:28:18.286Z,63.03
2023-01-09T13:30:58.848Z,60.37
2023-01-09T13:33:33.863Z,61.43
2023-01-09T13:36:03.437Z,58.80
2023-01-09T13:38:32.900Z,61.77
2023-01-09T13:41:32.414Z,59.47
2023-01-09T13:44:02.533Z,57.53
2023-01-09T13:46:50.348Z,62.07
2023-01-09T13:49:42.322Z,57.43
2023-01-09T13:52:24.442Z,58.27
2023-01-09T13:54:51.524Z,59.67
2023-01-09T13:57:18.253Z,57.67
2023-01-09T13:59:47.818Z,60.77
2023-01-09T14:02:36.822Z,61.67
2023-01-09T14:05:24.221Z,62.63
2023-01-09T14:08:02.579Z,60.63
2023-01-09T14:10:37.415Z,59.47
2023-01-09T14:13:14.860Z,57.07
2023-01-09T14:15:45.004Z,56.23
2023-01-09T14:18:27.104Z,59.20
2023-01-09T14:21:03.343Z,57.13
2023-01-09T14:23:53.185Z,56.97
2023-01-09T14:26:24.906Z,67.27
2023-01-09T14:28:52.401Z,67.50
2023-01-09T14:31:32.821Z,68.07
2023-01-09T14:34:31.167Z,62.47
2023-01-09T14:37:01.715Z,61.80
2023-01-09T14:39:32.338Z,63.10
2023-01-09T14:42:08.330Z,63.63
2023-01-09T14:44:50.799Z,65.00
2023-01-09T14:47:55.857Z,67.33
2023-01-09T14:50:30.374Z,71.67
2023-01-09T14:53:11.537Z,70.20
2023-01-09T14:55:57.721Z,69.33
2023-01-09T14:58:26.167Z,69.37
2023-01-09T15:00:55.129Z,74.03
2023-01-09T15:03:24.337Z,72.93
2023-01-09T15:05:53.135Z,76.40
2023-01-09T15:08:25.548Z,73.50
2023-01-09T15:10:54.707Z,70.80
2023-01-09T15:13:47.259Z,72.07
2023-01-09T15:16:19.418Z,67.43
2023-01-09T15:18:49.925Z,70.97
2023-01-09T15:21:27.668Z,69.30
2023-01-09T15:23:54.943Z,70.03
2023-01-09T15:26:29.663Z,87.97
2023-01-09T15:29:15.452Z,72.13
2023-01-09T15:31:45.008Z,70.97
2023-01-09T15:34:19.985Z,92.00
2023-01-09T15:36:49.287Z,82.57
2023-01-09T15:39:25.196Z,69.23
2023-01-09T15:42:11.186Z,64.93
2023-01-09T15:44:40.114Z,119.47
2023-01-09T15:47:13.539Z,60.63
2023-01-09T15:49:40.850Z,57.63
2023-01-09T15:52:13.321Z,60.13
2023-01-09T15:54:42.722Z,58.87
2023-01-09T15:57:24.954Z,56.80
2023-01-09T15:59:55.598Z,58.00
2023-01-09T16:02:43.609Z,61.37
2023-01-09T16:05:16.498Z,55.63
2023-01-09T16:07:51.102Z,55.53
2023-01-09T16:10:34.182Z,55.13
2023-01-09T16:13:02.397Z,53.73
2023-01-09T16:15:34.694Z,55.77
2023-01-09T16:18:22.394Z,55.70
2023-01-09T16:20:49.730Z,54.63
2023-01-09T16:23:28.456Z,53.90
2023-01-09T16:26:14.695Z,55.77
2023-01-09T16:28:42.765Z,56.23
2023-01-09T16:31:30.684Z,56.27
2023-01-09T16:34:06.480Z,58.73
2023-01-09T16:36:35.913Z,59.83
2023-01-09T16:39:04.139Z,60.30
2023-01-09T16:41:49.506Z,62.63
2023-01-09T16:44:19.095Z,60.70
2023-01-09T16:46:46.359Z,60.20
2023-01-09T16:49:16.378Z,62.67
2023-01-09T16:51:43.463Z,61.17
2023-01-09T16:54:10.313Z,66.27
2023-01-09T16:56:39.422Z,65.07
2023-01-09T16:59:14.266Z,63.10
2023-01-09T17:01:41.640Z,63.97
2023-01-09T17:04:13.161Z,61.97
2023-01-09T17:06:41.852Z,62.33
2023-01-09T17:09:12.257Z,64.60
2023-01-09T17:11:39.933Z,65.73
2023-01-09T17:14:07.595Z,63.27
2023-01-09T17:16:38.663Z,62.43
2023-01-09T17:19:05.575Z,62.30
2023-01-09T17:21:32.819Z,62.60
2023-01-09T17:24:18.699Z,60.20
2023-01-09T17:27:09.073Z,61.30
2023-01-09T17:29:36.499Z,62.03
2023-01-09T17:32:04.165Z,62.70
2023-01-09T17:34:31.399Z,59.40
2023-01-09T17:36:59.171Z,61.40
2023-01-09T17:39:26.408Z,61.73
2023-01-09T17:41:53.609Z,59.57
2023-01-09T17:44:20.507Z,60.97
2023-01-09T17:46:47.543Z,59.20
2023-01-09T17:49:17.184Z,61.83
2023-01-09T17:51:44.589Z,60.63
2023-01-09T17:54:11.824Z,60.90
2023-01-09T17:56:42.597Z,58.30
2023-01-09T17:59:15.142Z,55.93
2023-01-09T18:01:44.318Z,56.93
2023-01-09T18:04:11.476Z,56.43
2023-01-09T18:06:38.603Z,55.40
2023-01-09T18:09:06.384Z,55.13
2023-01-09T18:11:34.289Z,55.20
2023-01-09T18:14:01.084Z,55.07
2023-01-09T18:16:29.023Z,56.70
2023-01-09T18:18:58.039Z,55.07
2023-01-09T18:21:27.551Z,55.10
2023-01-09T18:23:54.892Z,56.30
2023-01-09T18:26:22.883Z,55.70
2023-01-09T18:28:56.807Z,57.03
2023-01-09T18:31:26.029Z,56.80
2023-01-09T18:33:54.881Z,58.37
2023-01-09T18:36:29.161Z,57.70
2023-01-09T18:39:00.915Z,56.73
2023-01-09T18:41:29.252Z,58.40
2023-01-09T18:44:00.845Z,57.40
2023-01-09T18:46:31.968Z,60.50
2023-01-09T18:49:04.198Z,59.00
2023-01-09T18:51:33.347Z,59.77
2023-01-09T18:54:00.128Z,58.57
2023-01-09T18:56:27.616Z,58.17
2023-01-09T18:58:59.038Z,61.87
2023-01-09T19:01:28.409Z,56.70
2023-01-09T19:03:56.841Z,60.43
2023-01-09T19:06:24.209Z,58.23
2023-01-09T19:08:51.057Z,56.57
2023-01-09T19:11:18.539Z,58.33
2023-01-09T19:13:45.258Z,57.93
2023-01-09T19:16:12.596Z,55.43
2023-01-09T19:18:41.434Z,57.33
2023-01-09T19:21:11.356Z,56.50
2023-01-09T19:23:38.193Z,55.53
2023-01-09T19:26:08.525Z,54.03
2023-01-09T19:28:36.375Z,55.97
2023-01-09T19:31:03.803Z,56.00
2023-01-09T19:33:30.670Z,54.97
2023-01-09T19:35:57.677Z,54.63
2023-01-09T19:38:24.921Z,57.47
2023-01-09T19:40:52.035Z,54.83
2023-01-09T19:43:27.882Z,53.53
2023-01-09T19:45:56.464Z,54.13
2023-01-09T19:48:27.082Z,54.43
2023-01-09T19:51:03.428Z,53.47
2023-01-09T19:53:31.106Z,53.60
2023-01-09T19:56:17.625Z,53.43
2023-01-09T19:58:50.280Z,52.67
2023-01-09T20:01:19.981Z,52.33
2023-01-09T20:03:48.569Z,52.00
2023-01-09T20:06:19.353Z,53.43
2023-01-09T20:08:47.712Z,54.87
2023-01-09T20:11:15.931Z,53.90
2023-01-09T20:13:42.914Z,53.50
2023-01-09T20:16:22.274Z,54.17
2023-01-09T20:18:49.447Z,52.13
2023-01-09T20:23:50.825Z,51.40
2023-01-09T20:26:18.908Z,52.03
2023-01-09T20:28:46.959Z,53.40
2023-01-09T20:31:16.935Z,52.13
2023-01-09T20:33:44.581Z,52.03
2023-01-09T20:36:11.637Z,53.07
2023-01-09T20:38:39.540Z,54.10
2023-01-09T20:41:24.039Z,53.00
2023-01-09T20:43:55.397Z,50.57
2023-01-09T20:46:24.970Z,51.93
2023-01-09T20:48:54.493Z,50.80
2023-01-09T20:51:21.585Z,51.23
2023-01-09T20:53:58.602Z,49.80
2023-01-09T20:56:27.344Z,49.83
2023-01-09T20:58:54.650Z,50.57
2023-01-09T21:01:24.934Z,47.73
2023-01-09T21:03:53.176Z,45.67
2023-01-09T21:06:22.734Z,44.17
2023-01-09T21:08:50.952Z,43.13
2023-01-09T21:11:18.525Z,46.43
2023-01-09T21:13:45.565Z,43.93
2023-01-09T21:16:19.867Z,44.23
2023-01-09T21:18:48.072Z,43.83
2023-01-09T21:21:18.485Z,42.33
2023-01-09T21:23:47.089Z,42.53
2023-01-09T21:26:15.455Z,42.93
2023-01-09T21:28:49.150Z,42.50
2023-01-09T21:31:19.571Z,43.20
2023-01-09T21:33:48.056Z,44.70
2023-01-09T21:36:15.823Z,41.50
2023-01-09T21:38:43.078Z,44.63
2023-01-09T21:41:29.148Z,41.90
2023-01-09T21:44:14.687Z,41.53
2023-01-09T21:46:55.974Z,42.57
2023-01-09T21:49:25.689Z,40.43
2023-01-09T21:51:53.930Z,39.20
2023-01-09T21:54:23.251Z,41.17
2023-01-09T21:56:51.506Z,40.20
2023-01-09T21:59:19.150Z,41.63
2023-01-09T22:01:48.484Z,39.27
2023-01-09T22:04:17.632Z,39.43
2023-01-09T22:06:44.864Z,37.83
2023-01-09T22:09:12.203Z,39.47
2023-01-09T22:11:39.527Z,39.10
2023-01-09T22:14:06.859Z,39.30
2023-01-09T22:16:34.115Z,36.40
2023-01-09T22:19:00.939Z,36.87
2023-01-09T22:21:28.009Z,35.57
2023-01-09T22:23:54.812Z,39.23
2023-01-09T22:26:21.993Z,36.93
2023-01-09T22:28:49.192Z,38.87
2023-01-09T22:31:18.957Z,38.63
2023-01-09T22:33:50.882Z,36.33
2023-01-09T22:36:19.088Z,35.80
2023-01-09T22:38:46.697Z,34.93
2023-01-09T22:41:13.920Z,33.97
2023-01-09T22:43:40.802Z,37.13
2023-01-09T22:46:11.501Z,37.27
2023-01-09T22:48:40.176Z,36.70
2023-01-09T22:51:19.194Z,35.33
2023-01-09T22:53:46.481Z,35.03
2023-01-09T22:56:16.087Z,37.67
2023-01-09T22:58:43.329Z,35.40
2023-01-09T23:01:13.281Z,35.57
2023-01-09T23:03:40.211Z,35.87
2023-01-09T23:06:11.312Z,33.83
2023-01-09T23:08:38.746Z,36.17
2023-01-09T23:11:08.846Z,34.20
2023-01-09T23:13:36.346Z,31.70
2023-01-09T23:16:04.828Z,31.47
2023-01-09T23:18:31.591Z,32.77
2023-01-09T23:21:02.007Z,31.07
2023-01-09T23:23:30.757Z,30.47
2023-01-09T23:26:02.175Z,26.77
2023-01-09T23:28:30.379Z,29.97
2023-01-09T23:30:57.555Z,32.17
2023-01-09T23:33:24.885Z,29.30
2023-01-09T23:35:51.922Z,30.40
2023-01-09T23:38:18.828Z,28.07
2023-01-09T23:40:46.108Z,28.90
2023-01-09T23:43:14.896Z,28.23
2023-01-09T23:45:46.668Z,28.73
2023-01-09T23:48:15.558Z,28.13
2023-01-09T23:50:44.663Z,28.53
2023-01-09T23:53:11.435Z,29.10
2023-01-09T23:55:38.466Z,26.80
2023-01-09T23:58:05.205Z,27.10
